Time;durP1;ratioP1;P1;durP2;ratioP2;P2;SDS_P1;SDS_P2;PMS_P1;PMS_P2;Temp;Humidity;BMP_temperature;BMP_pressure;BME280_temperature;BME280_humidity;BME280_pressure;Samples;Min_cycle;Max_cycle;Signal;HPM_P1;HPM_P2
2024/01/24 00:01:39;;;;;;;18.33;12.40;;;;;;;-1.34;100.00;145733.75;5133012;27;20201;-62
2024/01/24 00:04:07;;;;;;;20.53;13.20;;;;;;;-1.50;100.00;145694.97;5133312;27;20579;-62
2024/01/24 00:06:34;;;;;;;17.37;12.20;;;;;;;-1.45;100.00;145708.75;5133263;27;20187;-63
2024/01/24 00:09:01;;;;;;;16.97;12.23;;;;;;;-1.40;100.00;145721.22;5133102;27;20243;-62
2024/01/24 00:11:29;;;;;;;21.37;12.77;;;;;;;-1.54;100.00;145686.25;5132966;27;20640;-62
2024/01/24 00:13:56;;;;;;;14.27;12.60;;;;;;;-1.62;100.00;145666.22;5132848;27;20193;-61
2024/01/24 00:16:23;;;;;;;17.30;11.97;;;;;;;-1.86;100.00;145606.16;5133073;27;20204;-62
2024/01/24 00:18:52;;;;;;;16.43;12.40;;;;;;;-1.73;100.00;145638.69;5132438;27;20193;-61
2024/01/24 00:21:19;;;;;;;15.90;13.47;;;;;;;-1.80;100.00;145621.19;5132898;27;20660;-62
2024/01/24 00:23:46;;;;;;;18.27;13.50;;;;;;;-1.66;100.00;145656.22;5132884;28;20182;-61
2024/01/24 00:26:13;;;;;;;17.17;12.93;;;;;;;-1.70;100.00;145646.22;5132803;28;20251;-63
2024/01/24 00:28:40;;;;;;;22.40;14.07;;;;;;;-1.68;100.00;145651.19;5132966;28;20213;-62
2024/01/24 00:31:07;;;;;;;20.73;14.33;;;;;;;-2.03;100.00;145563.66;5132899;28;20582;-64
2024/01/24 00:33:34;;;;;;;26.27;14.37;;;;;;;-2.00;100.00;145571.19;5132727;28;20186;-62
2024/01/24 00:36:02;;;;;;;19.30;13.93;;;;;;;-1.83;100.00;145613.69;5132699;28;20294;-61
2024/01/24 00:38:30;;;;;;;16.90;14.10;;;;;;;-1.91;100.00;145593.69;5132785;27;20984;-62
2024/01/24 00:40:57;;;;;;;22.77;13.60;;;;;;;-1.87;100.00;145603.69;5132571;28;20262;-61
2024/01/24 00:43:25;;;;;;;16.23;12.87;;;;;;;-2.00;100.00;145571.19;5132568;28;20190;-62
2024/01/24 00:45:52;;;;;;;23.73;13.53;;;;;;;-2.20;100.00;145522.38;5132300;28;20207;-62
2024/01/24 00:48:19;;;;;;;19.93;13.40;;;;;;;-2.04;100.00;145561.19;5132510;28;20565;-61
2024/01/24 00:50:47;;;;;;;19.43;12.90;;;;;;;-2.11;100.00;145544.91;5132380;28;20187;-61
2024/01/24 00:53:20;;;;;;;18.93;13.27;;;;;;;-1.92;100.00;145591.19;5132512;28;20705;-61
2024/01/24 00:55:47;;;;;;;25.97;13.03;;;;;;;-2.04;100.00;145561.19;5132516;27;20324;-62
2024/01/24 00:58:14;;;;;;;28.77;14.90;;;;;;;-2.14;100.00;145536.16;5132280;28;20175;-61
2024/01/24 01:00:41;;;;;;;14.87;12.70;;;;;;;-1.98;100.00;145576.16;5132721;27;20178;-62
2024/01/24 01:03:08;;;;;;;17.47;13.70;;;;;;;-2.06;100.00;145556.16;5132659;28;20247;-61
2024/01/24 01:05:36;;;;;;;22.40;13.90;;;;;;;-2.12;100.00;145542.38;5132168;28;20213;-62
2024/01/24 01:08:03;;;;;;;19.43;13.93;;;;;;;-2.07;100.00;145553.66;5132198;28;20232;-61
2024/01/24 01:10:31;;;;;;;22.20;15.17;;;;;;;-2.12;100.00;145542.38;5132511;27;20183;-61
2024/01/24 01:12:58;;;;;;;27.67;16.27;;;;;;;-2.07;100.00;145553.66;5132202;27;20195;-61
2024/01/24 01:15:25;;;;;;;21.47;14.83;;;;;;;-2.01;100.00;145568.66;5132217;27;20179;-62
2024/01/24 01:17:52;;;;;;;26.33;15.07;;;;;;;-1.93;100.00;145589.94;5132662;27;20187;-62
2024/01/24 01:20:19;;;;;;;23.20;15.40;;;;;;;-1.94;100.00;145587.41;5132292;28;20186;-61
2024/01/24 01:22:47;;;;;;;23.70;15.07;;;;;;;-2.05;100.00;145559.91;5132097;28;20182;-61
2024/01/24 01:25:14;;;;;;;22.83;15.40;;;;;;;-2.32;100.00;145492.41;5132338;28;20705;-60
2024/01/24 01:27:42;;;;;;;21.30;14.27;;;;;;;-2.31;100.00;145496.16;5131960;28;20186;-61
2024/01/24 01:30:10;;;;;;;22.33;15.47;;;;;;;-2.44;100.00;145463.66;5132235;28;20190;-61
2024/01/24 01:32:38;;;;;;;20.87;14.70;;;;;;;-2.41;100.00;145469.88;5134387;27;20235;-61
2024/01/24 01:35:07;;;;;;;22.67;14.93;;;;;;;-2.29;100.00;145499.88;5135731;27;20260;-61
2024/01/24 01:37:34;;;;;;;23.23;15.67;;;;;;;-2.37;100.00;145481.13;5135954;27;20191;-61
2024/01/24 01:40:01;;;;;;;22.10;14.53;;;;;;;-2.15;100.00;145534.91;5135523;27;20183;-61
2024/01/24 01:42:28;;;;;;;24.17;15.17;;;;;;;-2.27;100.00;145504.91;5135643;27;20235;-62
2024/01/24 01:44:56;;;;;;;25.13;15.23;;;;;;;-2.27;100.00;145503.66;5135737;27;20203;-60
2024/01/24 01:47:24;;;;;;;25.13;15.27;;;;;;;-2.31;100.00;145494.91;5135642;27;20671;-62
2024/01/24 01:49:52;;;;;;;22.43;14.53;;;;;;;-2.26;100.00;145507.41;5135340;27;20190;-62
2024/01/24 01:52:20;;;;;;;24.30;15.77;;;;;;;-2.26;100.00;145506.16;5135566;27;20241;-62
2024/01/24 01:54:49;;;;;;;18.73;13.87;;;;;;;-2.26;100.00;145506.16;5135306;27;20704;-62
2024/01/24 01:57:16;;;;;;;27.77;15.83;;;;;;;-2.27;100.00;145504.91;5135619;27;20689;-61
2024/01/24 01:59:44;;;;;;;21.40;14.10;;;;;;;-2.39;100.00;145476.16;5135319;27;20187;-62
2024/01/24 02:02:13;;;;;;;23.43;15.20;;;;;;;-2.37;100.00;145479.88;5135577;27;20597;-61
2024/01/24 02:04:40;;;;;;;20.80;15.07;;;;;;;-2.56;100.00;145433.66;5135429;27;20588;-61
2024/01/24 02:07:07;;;;;;;26.93;15.53;;;;;;;-2.70;100.00;145398.66;5135136;27;20247;-61
2024/01/24 02:09:35;;;;;;;24.43;15.17;;;;;;;-2.57;100.00;145429.91;5135020;27;20190;-62
2024/01/24 02:12:02;;;;;;;22.07;14.50;;;;;;;-2.55;100.00;145436.19;5135347;27;20209;-62
2024/01/24 02:14:29;;;;;;;27.23;16.57;;;;;;;-2.55;100.00;145436.19;5134822;27;20197;-61
2024/01/24 02:16:56;;;;;;;27.43;15.00;;;;;;;-2.47;100.00;145456.16;5134904;27;20243;-62
2024/01/24 02:19:25;;;;;;;25.13;14.53;;;;;;;-2.72;100.00;145392.44;5135093;27;20607;-61
2024/01/24 02:21:53;;;;;;;22.30;13.67;;;;;;;-2.55;100.00;145436.19;5134800;27;20187;-61
2024/01/24 02:24:21;;;;;;;20.17;13.23;;;;;;;-2.59;100.00;145424.94;5134595;27;20191;-62
2024/01/24 02:26:48;;;;;;;23.83;14.27;;;;;;;-2.58;100.00;145428.66;5134977;27;20659;-61
2024/01/24 02:29:16;;;;;;;19.87;13.47;;;;;;;-2.63;100.00;145414.94;5134628;27;20613;-61
2024/01/24 02:31:43;;;;;;;22.93;13.50;;;;;;;-2.67;100.00;145404.94;5134824;27;20239;-61
2024/01/24 02:34:10;;;;;;;17.53;13.20;;;;;;;-2.59;100.00;145424.94;5134412;27;20186;-61
2024/01/24 02:36:37;;;;;;;18.87;13.20;;;;;;;-2.65;100.00;145411.16;5134598;27;20183;-61
2024/01/24 02:39:04;;;;;;;17.73;12.83;;;;;;;-2.72;100.00;145393.69;5134406;27;20190;-61
2024/01/24 02:41:33;;;;;;;16.97;12.57;;;;;;;-2.62;100.00;145418.66;5134345;27;20197;-62
2024/01/24 02:44:00;;;;;;;20.50;12.53;;;;;;;-2.67;100.00;145406.16;5134151;27;20648;-62
2024/01/24 02:46:27;;;;;;;18.57;12.67;;;;;;;-2.78;100.00;145379.94;5134448;27;20206;-62
2024/01/24 02:48:54;;;;;;;17.33;12.67;;;;;;;-2.59;100.00;145426.19;5134272;27;20243;-61
2024/01/24 02:51:25;;;;;;;20.13;13.30;;;;;;;-2.55;100.00;145434.94;5134084;27;20186;-61
2024/01/24 02:53:52;;;;;;;20.53;13.17;;;;;;;-2.62;100.00;145418.66;5133952;27;20230;-62
2024/01/24 02:56:19;;;;;;;14.33;11.53;;;;;;;-2.58;100.00;145427.38;5133965;27;20226;-62
2024/01/24 02:58:48;;;;;;;15.97;12.27;;;;;;;-2.61;100.00;145421.16;5134317;27;20183;-61
2024/01/24 03:01:15;;;;;;;19.10;12.30;;;;;;;-2.48;100.00;145453.66;5134061;27;20183;-60
2024/01/24 03:03:43;;;;;;;17.37;11.73;;;;;;;-2.44;100.00;145463.66;5133891;27;20227;-61
2024/01/24 03:06:10;;;;;;;14.07;11.70;;;;;;;-2.38;100.00;145477.41;5134010;27;20672;-61
2024/01/24 03:08:48;;;;;;;17.13;12.53;;;;;;;-2.42;100.00;145468.63;5134473;27;20187;-62
2024/01/24 03:11:15;;;;;;;18.27;12.63;;;;;;;-2.49;100.00;145451.16;5133816;27;20186;-62
2024/01/24 03:13:42;;;;;;;16.77;11.73;;;;;;;-2.43;100.00;145466.16;5134034;27;20706;-62
2024/01/24 03:16:11;;;;;;;13.23;11.37;;;;;;;-2.39;100.00;145476.16;5133663;27;20236;-61
2024/01/24 03:18:38;;;;;;;13.57;11.33;;;;;;;-2.50;100.00;145448.63;5134494;27;20236;-61
2024/01/24 03:21:07;;;;;;;16.30;11.63;;;;;;;-2.37;100.00;145481.13;5133534;27;20175;-62
2024/01/24 03:23:34;;;;;;;18.33;11.60;;;;;;;-2.41;100.00;145471.16;5133511;27;20187;-61
2024/01/24 03:26:01;;;;;;;17.57;12.17;;;;;;;-2.34;100.00;145488.69;5133748;27;20572;-62
2024/01/24 03:28:28;;;;;;;18.73;11.93;;;;;;;-2.34;100.00;145487.41;5133646;27;20553;-62
2024/01/24 03:30:55;;;;;;;16.37;12.00;;;;;;;-2.35;100.00;145486.16;5133683;27;20191;-61
2024/01/24 03:33:24;;;;;;;18.73;11.93;;;;;;;-2.31;100.00;145496.16;5133464;27;20270;-62
2024/01/24 03:35:51;;;;;;;18.67;12.37;;;;;;;-2.29;100.00;145499.88;5133616;27;20633;-61
2024/01/24 03:38:19;;;;;;;17.13;12.17;;;;;;;-2.39;100.00;145476.16;5133552;27;20212;-62
2024/01/24 03:40:46;;;;;;;17.30;12.10;;;;;;;-2.41;100.00;145471.16;5133177;27;20183;-61
2024/01/24 03:43:13;;;;;;;14.00;12.23;;;;;;;-2.31;100.00;145494.91;5133452;27;20262;-62
2024/01/24 03:45:41;;;;;;;13.60;11.17;;;;;;;-2.34;100.00;145488.69;5133285;27;20553;-61
2024/01/24 03:48:08;;;;;;;16.60;11.60;;;;;;;-2.35;100.00;145486.16;5133031;27;20178;-62
2024/01/24 03:50:37;;;;;;;13.37;11.20;;;;;;;-2.40;100.00;145473.66;5133050;27;20183;-61
2024/01/24 03:53:05;;;;;;;14.13;11.87;;;;;;;-2.51;100.00;145444.91;5133371;27;20187;-62
2024/01/24 03:55:32;;;;;;;14.00;11.73;;;;;;;-2.43;100.00;145466.16;5131926;27;20260;-62
2024/01/24 03:57:59;;;;;;;14.00;11.87;;;;;;;-2.48;100.00;145452.41;5133296;27;20216;-62
2024/01/24 04:00:27;;;;;;;14.40;11.43;;;;;;;-2.61;100.00;145421.16;5133052;27;20187;-62
2024/01/24 04:02:54;;;;;;;15.83;11.87;;;;;;;-2.46;100.00;145458.63;5133207;27;20194;-61
2024/01/24 04:05:22;;;;;;;21.07;12.93;;;;;;;-2.58;100.00;145427.38;5132733;27;20203;-62
2024/01/24 04:07:50;;;;;;;17.90;12.07;;;;;;;-2.47;100.00;145456.16;5133256;27;20602;-62
2024/01/24 04:10:17;;;;;;;20.03;13.03;;;;;;;-2.49;100.00;145451.16;5132993;27;20704;-62
2024/01/24 04:12:44;;;;;;;18.43;12.80;;;;;;;-2.50;100.00;145448.63;5133089;27;20772;-62
2024/01/24 04:15:11;;;;;;;15.87;11.43;;;;;;;-2.85;100.00;145362.47;5132761;27;20191;-62
2024/01/24 04:17:39;;;;;;;14.87;12.40;;;;;;;-2.55;100.00;145436.19;5132767;27;20187;-62
2024/01/24 04:20:07;;;;;;;13.43;11.63;;;;;;;-2.73;100.00;145391.19;5132740;28;20194;-63
2024/01/24 04:22:34;;;;;;;15.70;12.03;;;;;;;-2.58;100.00;145428.66;5132836;28;20205;-61
2024/01/24 04:25:03;;;;;;;17.73;12.03;;;;;;;-2.65;100.00;145411.16;5132912;27;20561;-62
2024/01/24 04:27:30;;;;;;;17.47;11.87;;;;;;;-2.62;100.00;145418.66;5132875;28;20233;-62
2024/01/24 04:29:57;;;;;;;21.93;12.50;;;;;;;-2.76;100.00;145383.69;5132855;28;20686;-61
2024/01/24 04:32:24;;;;;;;15.83;11.70;;;;;;;-2.75;100.00;145386.16;5132483;28;20183;-62
2024/01/24 04:34:51;;;;;;;16.93;12.03;;;;;;;-2.75;100.00;145386.16;5132771;27;20561;-62
2024/01/24 04:37:18;;;;;;;13.53;11.50;;;;;;;-2.74;100.00;145388.66;5132756;28;20175;-62
2024/01/24 04:39:44;;;;;;;16.97;12.67;;;;;;;-2.75;100.00;145386.16;5132364;28;20232;-62
2024/01/24 04:42:13;;;;;;;15.43;12.03;;;;;;;-2.72;100.00;145393.69;5132641;28;20186;-61
2024/01/24 04:44:40;;;;;;;18.80;12.63;;;;;;;-2.80;100.00;145373.69;5132371;28;20189;-63
2024/01/24 04:47:07;;;;;;;17.77;13.10;;;;;;;-2.78;100.00;145379.94;5132561;28;20626;-62
2024/01/24 04:49:34;;;;;;;21.87;13.27;;;;;;;-2.77;100.00;145382.44;5132220;28;20183;-62
2024/01/24 04:52:01;;;;;;;19.60;13.00;;;;;;;-2.83;100.00;145367.44;5132409;28;20191;-61
2024/01/24 04:54:28;;;;;;;21.97;12.90;;;;;;;-2.86;100.00;145358.69;5132135;27;20307;-62
2024/01/24 04:56:55;;;;;;;17.07;12.37;;;;;;;-2.80;100.00;145373.69;5132547;28;20175;-62
2024/01/24 04:59:24;;;;;;;16.60;12.40;;;;;;;-2.81;100.00;145371.19;5132568;28;20182;-61
2024/01/24 05:01:51;;;;;;;20.07;11.50;;;;;;;-2.91;100.00;145347.44;5132436;27;20198;-61
2024/01/24 05:04:18;;;;;;;17.03;12.13;;;;;;;-2.88;100.00;145354.91;5131977;28;20183;-62
2024/01/24 05:06:45;;;;;;;14.90;12.27;;;;;;;-2.81;100.00;145371.19;5134674;27;20206;-62
2024/01/24 05:09:12;;;;;;;17.00;11.77;;;;;;;-2.76;100.00;145383.69;5136139;27;20183;-61
2024/01/24 05:11:41;;;;;;;20.17;13.00;;;;;;;-2.68;100.00;145403.69;5136287;27;20533;-62
2024/01/24 05:14:08;;;;;;;18.07;13.03;;;;;;;-2.86;100.00;145358.69;5136281;27;20610;-62
2024/01/24 05:16:41;;;;;;;24.77;14.20;;;;;;;-2.59;100.00;145426.19;5135844;27;20274;-61
2024/01/24 05:19:08;;;;;;;25.03;13.67;;;;;;;-2.59;100.00;145424.94;5136118;27;20599;-61
2024/01/24 05:21:41;;;;;;;20.93;14.47;;;;;;;-2.59;100.00;145426.19;5135838;27;20182;-62
2024/01/24 05:24:09;;;;;;;20.97;13.80;;;;;;;-2.82;100.00;145368.69;5136099;27;20626;-61
2024/01/24 05:26:36;;;;;;;18.80;13.30;;;;;;;-2.52;100.00;145443.66;5135651;27;20203;-61
2024/01/24 05:29:04;;;;;;;21.47;13.83;;;;;;;-2.54;100.00;145438.63;5135871;27;20186;-62
2024/01/24 05:31:33;;;;;;;20.40;14.03;;;;;;;-2.72;100.00;145392.44;5135577;27;20194;-62
2024/01/24 05:34:02;;;;;;;17.43;12.87;;;;;;;-2.37;100.00;145479.88;5135601;27;20271;-62
2024/01/24 05:36:29;;;;;;;18.10;12.27;;;;;;;-2.35;100.00;145484.91;5135621;27;20240;-62
2024/01/24 05:38:56;;;;;;;21.27;13.60;;;;;;;-2.38;100.00;145478.63;5135487;27;20187;-62
2024/01/24 05:41:24;;;;;;;24.50;14.63;;;;;;;-2.35;100.00;145486.16;5135914;27;20183;-61
2024/01/24 05:43:51;;;;;;;24.13;13.67;;;;;;;-2.26;100.00;145507.41;5135908;27;20183;-61
2024/01/24 05:46:18;;;;;;;21.30;14.83;;;;;;;-2.35;100.00;145486.16;5135258;27;20199;-62
2024/01/24 05:48:44;;;;;;;29.73;15.03;;;;;;;-2.33;100.00;145491.13;5135574;27;20187;-63
2024/01/24 05:51:13;;;;;;;19.80;12.60;;;;;;;-2.21;100.00;145518.66;5135086;27;20240;-62
2024/01/24 05:53:42;;;;;;;21.87;15.17;;;;;;;-2.22;100.00;145516.16;5134866;27;20243;-61
2024/01/24 05:56:09;;;;;;;27.77;15.40;;;;;;;-2.14;100.00;145536.16;5135420;27;20175;-62
2024/01/24 05:58:37;;;;;;;21.27;14.13;;;;;;;-2.11;100.00;145543.66;5136039;27;20179;-62
2024/01/24 06:01:05;;;;;;;23.10;14.03;;;;;;;-2.03;100.00;145563.66;5135226;27;20182;-62
2024/01/24 06:03:32;;;;;;;23.40;14.67;;;;;;;-1.97;100.00;145579.94;5135516;27;20255;-63
2024/01/24 06:05:59;;;;;;;23.63;15.73;;;;;;;-2.06;100.00;145557.41;5135010;27;20301;-62
2024/01/24 06:08:29;;;;;;;32.57;16.83;;;;;;;-1.76;100.00;145631.19;5135312;27;20187;-61
2024/01/24 06:10:56;;;;;;;27.43;15.53;;;;;;;-1.81;100.00;145618.69;5134929;27;20183;-62
2024/01/24 06:13:23;;;;;;;26.37;17.13;;;;;;;-1.69;100.00;145647.44;5135131;27;20183;-61
2024/01/24 06:15:51;;;;;;;27.03;16.33;;;;;;;-1.46;100.00;145705.00;5135074;27;20656;-62
2024/01/24 06:18:18;;;;;;;22.27;13.93;;;;;;;-1.40;100.00;145721.22;5133796;27;20223;-63
2024/01/24 06:20:46;;;;;;;22.60;14.40;;;;;;;-1.36;100.00;145730.03;5135072;27;20564;-63
2024/01/24 06:23:13;;;;;;;19.53;13.20;;;;;;;-1.32;100.00;145738.78;5134996;27;20190;-64
2024/01/24 06:25:42;;;;;;;16.67;12.37;;;;;;;-0.68;100.00;145898.94;5135032;27;20602;-64
2024/01/24 06:28:09;;;;;;;17.43;12.77;;;;;;;-0.28;100.00;145997.88;5134570;27;20183;-64
2024/01/24 06:30:36;;;;;;;18.37;12.77;;;;;;;0.04;100.00;146076.81;5136577;27;20200;-63
2024/01/24 06:33:03;;;;;;;22.27;14.10;;;;;;;0.17;100.00;146109.34;5137365;27;20187;-64
2024/01/24 06:35:31;;;;;;;22.70;14.47;;;;;;;0.59;100.00;146213.38;5137365;27;20191;-64
2024/01/24 06:37:58;;;;;;;25.27;14.00;;;;;;;0.73;100.00;146248.47;5137355;27;20200;-63
2024/01/24 06:40:25;;;;;;;18.53;14.03;;;;;;;1.02;100.00;146318.69;5137357;27;20179;-64
2024/01/24 06:42:54;;;;;;;15.40;11.37;;;;;;;1.02;100.00;146319.91;5138243;27;20720;-64
2024/01/24 06:45:21;;;;;;;13.83;12.23;;;;;;;1.76;100.00;146504.28;5137435;27;20199;-64
2024/01/24 06:47:48;;;;;;;17.67;12.63;;;;;;;1.96;100.00;146551.97;5136936;27;20213;-65
2024/01/24 06:50:17;;;;;;;15.00;11.93;;;;;;;1.97;100.00;146554.47;5138317;27;20222;-64
2024/01/24 06:52:44;;;;;;;19.67;12.13;;;;;;;2.73;100.00;146744.03;5137974;27;20194;-65
2024/01/24 06:55:11;;;;;;;16.10;12.40;;;;;;;3.10;100.00;146836.97;5137004;27;20234;-65
2024/01/24 06:57:38;;;;;;;20.40;15.00;;;;;;;3.09;100.00;146833.22;5136427;27;20183;-63
2024/01/24 07:00:09;;;;;;;21.37;12.33;;;;;;;3.34;100.00;146894.78;5136613;27;20182;-64
2024/01/24 07:02:37;;;;;;;13.87;11.70;;;;;;;3.44;100.00;146921.13;5137059;27;20198;-65
2024/01/24 07:05:05;;;;;;;14.20;12.43;;;;;;;3.65;100.00;146972.66;5134811;27;20197;-64
2024/01/24 07:07:32;;;;;;;16.80;12.03;;;;;;;3.90;100.00;147034.28;5135220;27;20206;-59
2024/01/24 07:09:59;;;;;;;17.70;11.70;;;;;;;4.31;100.00;147136.09;5133611;27;20235;-59
2024/01/24 07:12:26;;;;;;;20.50;12.63;;;;;;;4.16;100.00;147099.59;5133756;27;20259;-60
2024/01/24 07:14:53;;;;;;;13.63;12.23;;;;;;;4.63;100.00;147216.56;5133748;27;20183;-61
2024/01/24 07:17:22;;;;;;;15.90;11.93;;;;;;;5.56;100.00;147446.88;5133396;27;20179;-60
2024/01/24 07:19:50;;;;;;;13.27;11.60;;;;;;;5.75;100.00;147495.94;5133464;27;20218;-59
2024/01/24 07:22:18;;;;;;;12.43;11.13;;;;;;;5.43;100.00;147415.41;5133228;27;20265;-60
2024/01/24 07:24:45;;;;;;;11.03;10.13;;;;;;;5.39;100.00;147406.53;5133578;27;20218;-59
2024/01/24 07:27:12;;;;;;;11.43;9.80;;;;;;;5.35;100.00;147396.47;5133391;27;20237;-60
2024/01/24 07:29:39;;;;;;;10.83;9.90;;;;;;;5.75;100.00;147494.69;5133779;27;20183;-59
2024/01/24 07:32:07;;;;;;;14.87;10.27;;;;;;;5.91;100.00;147536.28;5133345;27;20183;-60
2024/01/24 07:34:38;;;;;;;13.67;11.13;;;;;;;6.24;100.00;147616.84;5133171;27;20186;-60
2024/01/24 07:37:05;;;;;;;12.43;11.33;;;;;;;6.26;100.00;147623.19;5133344;27;20567;-60
2024/01/24 07:39:32;;;;;;;14.17;10.00;;;;;;;5.98;100.00;147553.88;5133066;27;20187;-60
2024/01/24 07:41:59;;;;;;;12.43;11.17;;;;;;;6.31;100.00;147634.53;5133362;27;20178;-60
2024/01/24 07:44:27;;;;;;;12.80;9.90;;;;;;;7.22;97.02;147861.31;5132964;27;20187;-60
2024/01/24 07:46:54;;;;;;;11.67;10.67;;;;;;;7.80;88.13;148007.59;5132774;27;20548;-60
2024/01/24 07:49:21;;;;;;;12.97;10.50;;;;;;;8.32;82.62;148135.06;5132999;27;20235;-60
2024/01/24 07:51:49;;;;;;;11.20;10.33;;;;;;;8.46;81.60;148171.63;5133175;27;20639;-61
2024/01/24 07:54:18;;;;;;;11.17;10.03;;;;;;;8.71;80.39;148234.72;5132759;27;20222;-61
2024/01/24 07:56:45;;;;;;;19.50;10.63;;;;;;;9.02;76.19;148311.75;5132417;27;20179;-60
2024/01/24 07:59:16;;;;;;;11.70;10.50;;;;;;;8.98;75.74;148300.38;5132703;27;20179;-61
2024/01/24 08:01:46;;;;;;;12.70;10.87;;;;;;;9.28;74.04;148374.88;5132799;27;20636;-61
2024/01/24 08:04:14;;;;;;;13.97;10.47;;;;;;;9.25;74.37;148367.31;5132754;27;20202;-60
2024/01/24 08:06:41;;;;;;;14.60;11.50;;;;;;;9.35;74.00;148393.81;5132475;27;20203;-60
2024/01/24 08:09:10;;;;;;;22.03;12.13;;;;;;;9.15;74.93;148343.31;5132301;27;20394;-61
2024/01/24 08:11:37;;;;;;;14.67;11.73;;;;;;;9.84;71.56;148516.34;5133330;27;20620;-60
2024/01/24 08:14:04;;;;;;;12.27;10.97;;;;;;;10.61;67.13;148708.44;5133027;27;20187;-62
2024/01/24 08:16:32;;;;;;;16.93;11.33;;;;;;;10.52;69.23;148685.72;5132810;27;20240;-62
2024/01/24 08:19:00;;;;;;;12.57;11.27;;;;;;;11.10;66.62;148831.09;5132425;27;20194;-61
2024/01/24 08:21:28;;;;;;;35.27;13.00;;;;;;;11.23;64.94;148863.97;5132942;28;20185;-60
2024/01/24 08:23:55;;;;;;;14.13;11.70;;;;;;;11.20;65.20;148856.34;5133112;28;20179;-60
2024/01/24 08:26:24;;;;;;;28.47;11.80;;;;;;;11.28;65.00;148876.63;5132372;28;20281;-61
2024/01/24 08:28:52;;;;;;;12.67;10.80;;;;;;;11.78;63.61;149000.63;5132366;27;20183;-62
2024/01/24 08:31:19;;;;;;;24.83;10.83;;;;;;;11.10;64.62;148829.81;5132333;28;20186;-60
2024/01/24 08:33:46;;;;;;;12.87;10.27;;;;;;;11.13;65.79;148837.38;5132542;28;20239;-60
2024/01/24 08:36:13;;;;;;;14.93;9.87;;;;;;;11.49;64.05;148927.22;5132942;28;20183;-60
2024/01/24 08:38:40;;;;;;;22.60;10.17;;;;;;;11.15;65.15;148843.75;5132721;27;20235;-61
2024/01/24 08:41:07;;;;;;;10.20;9.40;;;;;;;11.58;64.09;148951.25;5134598;27;20629;-60
2024/01/24 08:43:35;;;;;;;15.57;10.17;;;;;;;11.70;63.20;148981.63;5137109;27;20183;-60
2024/01/24 08:46:03;;;;;;;10.67;9.87;;;;;;;11.98;63.98;149049.97;5136581;27;20238;-61
2024/01/24 08:48:30;;;;;;;13.53;10.13;;;;;;;11.73;63.13;148989.25;5136709;27;20214;-61
2024/01/24 08:50:57;;;;;;;21.80;11.10;;;;;;;12.07;62.38;149074.03;5136616;27;20610;-61
2024/01/24 08:53:24;;;;;;;18.20;12.60;;;;;;;12.60;61.88;149206.91;5136277;27;20190;-61
2024/01/24 08:55:51;;;;;;;12.63;11.30;;;;;;;12.94;60.55;149290.53;5136087;27;20708;-61
2024/01/24 08:58:18;;;;;;;11.40;10.27;;;;;;;12.33;61.06;149139.84;5136119;27;20183;-60
2024/01/24 09:00:47;;;;;;;43.87;14.43;;;;;;;13.07;60.25;149323.44;5136216;27;20243;-61
2024/01/24 09:03:14;;;;;;;27.73;13.77;;;;;;;13.22;60.09;149361.47;5136489;27;20280;-60
2024/01/24 09:05:41;;;;;;;25.90;13.93;;;;;;;13.52;57.78;149436.22;5136243;27;20617;-61
2024/01/24 09:08:08;;;;;;;21.17;15.27;;;;;;;13.90;56.99;149532.53;5136073;27;20632;-62
2024/01/24 09:10:36;;;;;;;24.63;13.97;;;;;;;13.83;57.44;149514.81;5136299;27;20629;-61
2024/01/24 09:13:03;;;;;;;28.80;14.87;;;;;;;13.59;57.95;149455.22;5135885;27;20249;-60
2024/01/24 09:15:30;;;;;;;33.17;14.60;;;;;;;14.75;56.15;149744.28;5135832;27;20225;-60
2024/01/24 09:17:58;;;;;;;22.73;14.03;;;;;;;14.31;56.29;149635.19;5135814;27;20182;-60
2024/01/24 09:20:25;;;;;;;22.10;13.30;;;;;;;15.11;54.63;149834.38;5135897;27;20183;-60
2024/01/24 09:22:54;;;;;;;24.57;15.93;;;;;;;15.23;53.40;149866.06;5136245;27;20182;-59
2024/01/24 09:25:21;;;;;;;24.70;15.20;;;;;;;14.46;54.82;149672.03;5135782;27;20232;-60
2024/01/24 09:27:48;;;;;;;29.40;14.57;;;;;;;14.40;55.16;149656.78;5135414;27;20199;-59
2024/01/24 09:30:15;;;;;;;23.97;15.23;;;;;;;13.70;57.11;149481.84;5135343;27;20235;-60
2024/01/24 09:32:42;;;;;;;18.90;13.67;;;;;;;14.45;56.53;149669.47;5135721;27;20208;-59
2024/01/24 09:35:11;;;;;;;41.60;15.47;;;;;;;14.80;55.33;149758.25;5135501;27;20186;-60
2024/01/24 09:37:38;;;;;;;22.77;13.70;;;;;;;16.17;53.75;150102.13;5136219;27;20182;-61
2024/01/24 09:40:07;;;;;;;22.80;17.30;;;;;;;16.24;52.33;150118.66;5135785;27;20183;-60
2024/01/24 09:42:42;;;;;;;21.67;12.10;;;;;;;16.51;51.52;150187.22;5135995;27;20182;-60
2024/01/24 09:45:10;;;;;;;20.87;10.83;;;;;;;16.08;51.44;150078.06;5135234;27;20202;-60
2024/01/24 09:47:40;;;;;;;19.33;10.20;;;;;;;16.28;51.76;150128.81;5135352;27;20617;-61
2024/01/24 09:50:09;;;;;;;11.63;10.57;;;;;;;16.62;51.86;150215.22;5135489;27;20183;-59
2024/01/24 09:52:38;;;;;;;19.90;15.20;;;;;;;16.44;51.16;150169.44;5134217;27;20697;-59
2024/01/24 09:55:07;;;;;;;31.20;17.87;;;;;;;15.63;51.83;149965.06;5134975;27;20230;-59
2024/01/24 09:57:34;;;;;;;24.33;18.83;;;;;;;14.70;52.98;149731.59;5135356;27;20186;-59
2024/01/24 10:00:02;;;;;;;23.77;18.03;;;;;;;15.18;54.12;149852.13;5135214;27;20232;-61
2024/01/24 10:02:29;;;;;;;25.33;18.07;;;;;;;15.52;53.10;149938.44;5135602;27;20191;-60
2024/01/24 10:04:59;;;;;;;26.43;18.17;;;;;;;14.23;54.48;149613.63;5135436;27;20239;-59
2024/01/24 10:07:28;;;;;;;30.10;18.63;;;;;;;14.40;56.09;149656.78;5135185;27;20210;-60
2024/01/24 10:10:07;;;;;;;38.60;18.33;;;;;;;14.14;57.00;149593.34;5134550;27;20179;-60
2024/01/24 10:12:35;;;;;;;31.23;15.63;;;;;;;14.61;58.04;149710.03;5135023;27;20186;-60
2024/01/24 10:15:03;;;;;;;16.93;15.13;;;;;;;14.97;56.07;149800.09;5134988;27;20190;-59
2024/01/24 10:17:31;;;;;;;23.63;16.40;;;;;;;14.94;56.88;149792.47;5135026;27;20581;-59
2024/01/24 10:19:59;;;;;;;24.70;16.70;;;;;;;13.93;56.48;149540.13;5134600;27;20190;-59
2024/01/24 10:22:26;;;;;;;20.53;15.03;;;;;;;13.59;58.52;149453.94;5135149;27;20187;-61
2024/01/24 10:24:54;;;;;;;21.77;14.23;;;;;;;13.96;59.30;149546.50;5135110;27;20239;-59
2024/01/24 10:27:23;;;;;;;17.17;13.63;;;;;;;14.22;58.54;149611.09;5134621;27;20218;-59
2024/01/24 10:29:50;;;;;;;15.20;13.17;;;;;;;14.59;58.19;149705.00;5134981;27;20183;-60
2024/01/24 10:32:17;;;;;;;15.30;11.50;;;;;;;14.88;58.33;149777.28;5134509;27;20191;-60
2024/01/24 10:34:44;;;;;;;12.30;9.30;;;;;;;15.70;57.62;149982.84;5134501;27;20210;-60
2024/01/24 10:37:12;;;;;;;11.40;8.60;;;;;;;16.62;55.81;150215.22;5134366;27;20186;-62
2024/01/24 10:39:40;;;;;;;8.57;7.83;;;;;;;16.78;54.13;150255.84;5134837;27;20244;-59
2024/01/24 10:42:08;;;;;;;19.10;8.40;;;;;;;17.31;53.27;150388.00;5134479;27;20241;-59
2024/01/24 10:44:37;;;;;;;8.30;7.20;;;;;;;16.55;54.04;150196.13;5134323;27;20186;-59
2024/01/24 10:47:05;;;;;;;12.33;8.13;;;;;;;16.69;54.18;150233.00;5134556;27;20218;-60
2024/01/24 10:49:32;;;;;;;12.35;7.65;;;;;;;17.08;53.51;150330.81;5134601;27;20236;-60
2024/01/24 10:52:00;;;;;;;9.85;7.43;;;;;;;17.00;52.75;150310.47;5134142;27;20187;-59
2024/01/24 10:54:27;;;;;;;8.13;7.40;;;;;;;17.63;51.57;150469.34;5133904;27;20716;-59
2024/01/24 10:56:59;;;;;;;9.90;8.07;;;;;;;18.30;50.71;150637.13;5133842;27;20187;-60
2024/01/24 10:59:28;;;;;;;15.90;7.82;;;;;;;18.33;49.92;150644.75;5133949;27;20191;-59
2024/01/24 11:01:56;;;;;;;9.50;7.68;;;;;;;18.98;49.23;150808.88;5133781;27;20194;-59
2024/01/24 11:04:26;;;;;;;7.97;6.72;;;;;;;18.97;48.67;150805.06;5133789;27;20220;-60
2024/01/24 11:06:59;;;;;;;19.02;6.93;;;;;;;18.91;47.37;150789.81;5134056;27;20193;-60
2024/01/24 11:09:31;;;;;;;6.53;6.00;;;;;;;19.16;47.28;150854.72;5133783;27;20210;-59